createdAt,value
2022-11-24T00:01:28.323Z,2.37
2022-11-24T00:03:58.276Z,2.20
2022-11-24T00:06:26.552Z,2.67
2022-11-24T00:08:56.236Z,2.40
2022-11-24T00:11:26.352Z,2.60
2022-11-24T00:13:54.832Z,2.63
2022-11-24T00:16:24.131Z,2.40
2022-11-24T00:18:53.623Z,2.13
2022-11-24T00:21:22.252Z,2.93
2022-11-24T00:23:50.675Z,2.33
2022-11-24T00:26:21.309Z,2.13
2022-11-24T00:28:51.342Z,2.40
2022-11-24T00:31:21.159Z,3.00
2022-11-24T00:33:50.644Z,3.07
2022-11-24T00:36:19.906Z,2.40
2022-11-24T00:38:48.235Z,2.53
2022-11-24T00:41:15.804Z,2.57
2022-11-24T00:43:44.770Z,2.70
2022-11-24T00:46:12.541Z,2.30
2022-11-24T00:48:40.208Z,2.20
2022-11-24T00:51:09.981Z,1.97
2022-11-24T00:53:37.891Z,2.37
2022-11-24T00:56:05.995Z,2.50
2022-11-24T00:58:34.058Z,2.10
2022-11-24T01:01:06.545Z,2.23
2022-11-24T01:03:34.937Z,2.70
2022-11-24T01:06:06.533Z,2.53
2022-11-24T01:08:34.294Z,2.47
2022-11-24T01:11:13.866Z,2.20
2022-11-24T01:13:43.067Z,2.37
2022-11-24T01:16:21.102Z,2.30
2022-11-24T01:18:49.028Z,2.60
2022-11-24T01:21:17.235Z,2.67
2022-11-24T01:23:47.149Z,2.93
2022-11-24T01:26:16.997Z,2.20
2022-11-24T01:28:47.475Z,3.03
2022-11-24T01:31:16.697Z,2.03
2022-11-24T01:33:45.761Z,2.17
2022-11-24T01:36:14.077Z,2.03
2022-11-24T01:38:41.772Z,2.07
2022-11-24T01:41:12.997Z,2.00
2022-11-24T01:43:41.024Z,2.30
2022-11-24T01:46:18.083Z,2.30
2022-11-24T01:48:52.387Z,2.43
2022-11-24T01:51:24.720Z,1.53
2022-11-24T01:53:56.638Z,2.20
2022-11-24T01:56:25.083Z,2.30
2022-11-24T01:58:56.310Z,2.13
2022-11-24T02:01:24.302Z,1.97
2022-11-24T02:03:53.617Z,2.20
2022-11-24T02:06:24.611Z,2.10
2022-11-24T02:08:58.976Z,2.00
2022-11-24T02:11:29.791Z,2.30
2022-11-24T02:13:58.211Z,2.60
2022-11-24T02:16:26.454Z,2.33
2022-11-24T02:18:57.979Z,2.13
2022-11-24T02:21:25.767Z,2.53
2022-11-24T02:24:00.875Z,2.10
2022-11-24T02:26:39.917Z,2.30
2022-11-24T02:29:07.989Z,1.90
2022-11-24T02:31:35.677Z,2.70
2022-11-24T02:34:03.314Z,2.70
2022-11-24T02:36:30.976Z,2.33
2022-11-24T02:38:58.524Z,2.90
2022-11-24T02:41:28.250Z,3.07
2022-11-24T02:44:00.252Z,2.33
2022-11-24T02:46:28.086Z,2.33
2022-11-24T02:48:55.936Z,2.73
2022-11-24T02:51:23.628Z,1.90
2022-11-24T02:53:51.216Z,2.50
2022-11-24T02:56:18.778Z,2.47
2022-11-24T02:58:46.407Z,2.63
2022-11-24T03:01:15.368Z,2.60
2022-11-24T03:03:43.141Z,2.10
2022-11-24T03:06:10.748Z,2.80
2022-11-24T03:08:38.323Z,2.70
2022-11-24T03:11:06.142Z,3.83
2022-11-24T03:13:34.450Z,2.63
2022-11-24T03:16:02.035Z,2.70
2022-11-24T03:18:30.971Z,2.80
2022-11-24T03:21:00.815Z,2.90
2022-11-24T03:23:28.366Z,2.97
2022-11-24T03:25:55.961Z,3.10
2022-11-24T03:28:23.537Z,2.97
2022-11-24T03:30:51.191Z,3.40
2022-11-24T03:33:18.775Z,2.67
2022-11-24T03:35:47.708Z,2.40
2022-11-24T03:38:15.276Z,3.00
2022-11-24T03:40:42.987Z,2.50
2022-11-24T03:43:10.587Z,2.60
2022-11-24T03:45:45.811Z,2.40
2022-11-24T03:48:14.200Z,3.10
2022-11-24T03:50:42.019Z,2.60
2022-11-24T03:53:11.317Z,2.70
2022-11-24T03:55:39.023Z,2.40
2022-11-24T03:58:06.601Z,3.40
2022-11-24T04:00:34.171Z,2.37
2022-11-24T04:03:01.767Z,2.37
2022-11-24T04:05:29.464Z,3.17
2022-11-24T04:07:57.774Z,2.40
2022-11-24T04:10:26.682Z,3.40
2022-11-24T04:12:53.284Z,3.27
2022-11-24T04:15:21.508Z,2.50
2022-11-24T04:17:50.649Z,2.90
2022-11-24T04:20:18.707Z,2.67
2022-11-24T04:22:46.385Z,2.73
2022-11-24T04:25:17.302Z,2.70
2022-11-24T04:27:46.449Z,2.70
2022-11-24T04:30:14.126Z,3.30
2022-11-24T04:32:41.707Z,2.47
2022-11-24T04:35:09.686Z,2.67
2022-11-24T04:37:37.608Z,2.70
2022-11-24T04:40:06.277Z,2.77
2022-11-24T04:42:33.964Z,2.67
2022-11-24T04:45:03.236Z,2.30
2022-11-24T04:47:30.878Z,2.67
2022-11-24T04:49:58.495Z,2.67
2022-11-24T04:52:26.973Z,3.40
2022-11-24T04:54:54.751Z,2.20
2022-11-24T04:57:24.759Z,2.30
2022-11-24T04:59:53.524Z,2.60
2022-11-24T05:02:23.496Z,2.47
2022-11-24T05:04:51.534Z,3.00
2022-11-24T05:07:19.786Z,3.03
2022-11-24T05:10:05.629Z,2.50
2022-11-24T05:12:36.387Z,3.47
2022-11-24T05:15:06.378Z,3.17
2022-11-24T05:17:38.238Z,2.30
2022-11-24T05:20:08.371Z,3.00
2022-11-24T05:22:36.434Z,2.00
2022-11-24T05:25:04.582Z,3.17
2022-11-24T05:27:32.233Z,2.87
2022-11-24T05:29:59.774Z,2.87
2022-11-24T05:32:27.460Z,2.30
2022-11-24T05:34:56.754Z,2.67
2022-11-24T05:37:25.543Z,2.30
2022-11-24T05:39:54.487Z,2.30
2022-11-24T05:42:44.900Z,2.57
2022-11-24T05:45:16.887Z,2.10
2022-11-24T05:47:44.470Z,2.70
2022-11-24T05:50:15.214Z,3.77
2022-11-24T05:52:43.187Z,2.97
2022-11-24T05:55:11.809Z,2.87
2022-11-24T05:57:39.615Z,3.53
2022-11-24T06:00:09.116Z,2.83
2022-11-24T06:02:42.450Z,3.07
2022-11-24T06:05:10.341Z,2.10
2022-11-24T06:07:39.338Z,2.87
2022-11-24T06:10:07.307Z,3.20
2022-11-24T06:12:34.955Z,3.40
2022-11-24T06:15:02.840Z,3.37
2022-11-24T06:17:30.509Z,3.00
2022-11-24T06:19:58.144Z,3.10
2022-11-24T06:22:26.117Z,3.50
2022-11-24T06:24:55.219Z,2.90
2022-11-24T06:27:23.019Z,3.33
2022-11-24T06:29:50.823Z,3.73
2022-11-24T06:32:19.384Z,3.50
2022-11-24T06:34:46.999Z,3.03
2022-11-24T06:37:14.724Z,2.97
2022-11-24T06:39:42.582Z,3.30
2022-11-24T06:42:11.595Z,2.83
2022-11-24T06:44:39.305Z,3.37
2022-11-24T06:47:06.886Z,2.70
2022-11-24T06:49:34.472Z,3.27
2022-11-24T06:52:02.033Z,3.10
2022-11-24T06:54:29.640Z,2.70
2022-11-24T06:56:58.219Z,3.43
2022-11-24T06:59:27.640Z,3.23
2022-11-24T07:01:55.191Z,2.97
2022-11-24T07:04:25.657Z,3.80
2022-11-24T07:06:53.447Z,3.23
2022-11-24T07:09:21.257Z,4.47
2022-11-24T07:11:48.797Z,4.00
2022-11-24T07:14:16.368Z,4.37
2022-11-24T07:16:45.386Z,3.60
2022-11-24T07:19:13.047Z,3.97
2022-11-24T07:21:40.712Z,3.47
2022-11-24T07:24:08.693Z,3.90
2022-11-24T07:26:37.614Z,3.30
2022-11-24T07:29:05.913Z,3.60
2022-11-24T07:31:33.599Z,3.20
2022-11-24T07:34:02.537Z,3.63
2022-11-24T07:36:30.189Z,3.73
2022-11-24T07:38:57.873Z,3.40
2022-11-24T07:41:25.464Z,4.27
2022-11-24T07:43:53.022Z,4.43
2022-11-24T07:46:21.333Z,3.20
2022-11-24T07:48:49.087Z,3.63
2022-11-24T07:51:18.192Z,3.40
2022-11-24T07:53:46.406Z,4.20
2022-11-24T07:56:14.169Z,2.80
2022-11-24T07:58:41.751Z,3.40
2022-11-24T08:01:15.311Z,2.60
2022-11-24T08:03:44.012Z,3.53
2022-11-24T08:06:32.594Z,3.23
2022-11-24T08:09:01.854Z,3.07
2022-11-24T08:11:31.274Z,3.87
2022-11-24T08:13:58.835Z,2.60
2022-11-24T08:16:26.448Z,2.97
2022-11-24T08:18:55.950Z,4.10
2022-11-24T08:21:24.107Z,2.83
2022-11-24T08:23:55.860Z,3.30
2022-11-24T08:26:26.237Z,3.60
2022-11-24T08:28:55.870Z,4.53
2022-11-24T08:31:24.872Z,4.60
2022-11-24T08:33:53.131Z,4.60
2022-11-24T08:36:20.696Z,3.63
2022-11-24T08:38:48.867Z,4.07
2022-11-24T08:41:18.272Z,3.97
2022-11-24T08:43:47.257Z,4.00
2022-11-24T08:46:17.524Z,4.43
2022-11-24T08:48:48.105Z,4.73
2022-11-24T08:51:17.665Z,3.37
2022-11-24T08:53:45.322Z,4.67
2022-11-24T08:56:14.341Z,3.63
2022-11-24T08:58:42.689Z,4.20
2022-11-24T09:01:14.008Z,4.70
2022-11-24T09:03:48.457Z,3.80
2022-11-24T09:06:22.480Z,4.70
2022-11-24T09:08:50.116Z,3.20
2022-11-24T09:11:18.403Z,3.87
2022-11-24T09:13:46.346Z,3.90
2022-11-24T09:16:16.876Z,5.27
2022-11-24T09:18:45.243Z,6.03
2022-11-24T09:21:15.139Z,3.30
2022-11-24T09:23:44.077Z,3.97
2022-11-24T09:26:13.765Z,3.10
2022-11-24T09:28:41.562Z,3.90
2022-11-24T09:31:11.271Z,3.33
2022-11-24T09:33:40.980Z,3.47
2022-11-24T09:36:08.950Z,2.90
2022-11-24T09:38:36.741Z,3.30
2022-11-24T09:41:25.682Z,3.33
2022-11-24T09:44:00.318Z,2.77
2022-11-24T09:46:33.854Z,3.70
2022-11-24T09:49:06.039Z,2.80
2022-11-24T09:51:34.710Z,3.17
2022-11-24T09:54:08.256Z,4.23
2022-11-24T09:56:40.459Z,3.63
2022-11-24T09:59:14.332Z,2.90
2022-11-24T10:01:43.811Z,2.80
2022-11-24T10:04:19.360Z,3.53
2022-11-24T10:06:53.035Z,3.43
2022-11-24T10:09:48.565Z,3.17
2022-11-24T10:12:28.769Z,2.80
2022-11-24T10:15:21.644Z,3.10
2022-11-24T10:18:17.190Z,3.33
2022-11-24T10:20:56.505Z,8.03
2022-11-24T10:23:40.787Z,9.63
2022-11-24T10:26:13.476Z,3.83
2022-11-24T10:28:48.164Z,3.00
2022-11-24T10:31:24.128Z,3.90
2022-11-24T10:33:52.244Z,5.63
2022-11-24T10:36:32.984Z,3.10
2022-11-24T10:39:06.877Z,3.80
2022-11-24T10:41:43.692Z,4.20
2022-11-24T10:44:14.830Z,4.43
2022-11-24T10:46:42.930Z,4.57
2022-11-24T10:49:18.921Z,4.43
2022-11-24T10:52:02.061Z,2.70
2022-11-24T10:54:30.015Z,4.37
2022-11-24T10:56:57.624Z,3.50
2022-11-24T10:59:32.577Z,3.33
2022-11-24T11:02:01.180Z,3.50
2022-11-24T11:04:30.957Z,3.90
2022-11-24T11:07:18.431Z,4.10
2022-11-24T11:09:46.882Z,3.13
2022-11-24T11:15:23.482Z,3.50
2022-11-24T11:17:54.595Z,3.60
2022-11-24T11:20:28.694Z,4.73
2022-11-24T11:22:59.627Z,3.60
2022-11-24T11:25:32.949Z,4.77
2022-11-24T11:28:25.813Z,3.73
2022-11-24T11:31:18.154Z,3.27
2022-11-24T11:34:06.420Z,4.43
2022-11-24T11:36:41.407Z,3.67
2022-11-24T11:39:22.990Z,3.53
2022-11-24T11:41:52.744Z,3.97
2022-11-24T11:44:33.491Z,3.20
2022-11-24T11:47:10.177Z,4.17
2022-11-24T11:49:39.884Z,3.80
2022-11-24T11:52:32.168Z,4.10
2022-11-24T11:55:21.133Z,4.13
2022-11-24T11:57:59.865Z,3.10
2022-11-24T12:00:27.719Z,5.30
2022-11-24T12:03:17.548Z,3.50
2022-11-24T12:05:51.514Z,3.97
2022-11-24T12:08:49.456Z,3.60
2022-11-24T12:11:28.971Z,4.00
2022-11-24T12:14:11.746Z,3.93
2022-11-24T12:16:46.541Z,4.10
2022-11-24T12:19:34.709Z,4.10
2022-11-24T12:22:10.126Z,3.53
2022-11-24T12:24:44.911Z,3.83
2022-11-24T12:27:23.294Z,3.43
2022-11-24T12:30:05.303Z,4.40
2022-11-24T12:32:57.666Z,3.50
2022-11-24T12:35:33.179Z,4.10
2022-11-24T12:38:12.306Z,3.40
2022-11-24T12:41:18.199Z,3.70
2022-11-24T12:43:52.784Z,3.33
2022-11-24T12:46:29.184Z,3.40
2022-11-24T12:49:06.186Z,3.57
2022-11-24T12:51:36.589Z,3.90
2022-11-24T12:54:07.890Z,4.07
2022-11-24T12:56:42.187Z,4.57
2022-11-24T12:59:24.876Z,3.57
2022-11-24T13:02:01.269Z,4.50
2022-11-24T13:04:38.867Z,4.30
2022-11-24T13:07:12.142Z,26.37
2022-11-24T13:10:07.729Z,6.53
2022-11-24T13:12:54.282Z,6.30
2022-11-24T13:15:44.712Z,7.90
2022-11-24T13:18:48.387Z,4.20
2022-11-24T13:21:33.757Z,3.80
2022-11-24T13:24:04.076Z,3.57
2022-11-24T13:26:44.823Z,4.10
2022-11-24T13:29:31.330Z,3.37
2022-11-24T13:32:52.202Z,2.93
2022-11-24T13:35:21.108Z,3.60
2022-11-24T13:37:51.628Z,3.13
2022-11-24T13:40:54.191Z,4.00
2022-11-24T13:43:27.663Z,3.87
2022-11-24T13:45:55.279Z,4.10
2022-11-24T13:48:53.578Z,4.20
2022-11-24T13:51:26.555Z,3.90
2022-11-24T13:54:00.692Z,3.77
2022-11-24T13:56:31.357Z,3.43
2022-11-24T13:59:02.127Z,3.03
2022-11-24T14:01:32.808Z,3.97
2022-11-24T14:04:29.805Z,3.87
2022-11-24T14:07:08.011Z,3.90
2022-11-24T14:09:41.694Z,3.87
2022-11-24T14:12:16.053Z,3.67
2022-11-24T14:14:45.637Z,3.93
2022-11-24T14:17:20.367Z,3.90
2022-11-24T14:19:58.210Z,3.40
2022-11-24T14:22:34.514Z,3.47
2022-11-24T14:25:03.506Z,3.97
2022-11-24T14:27:34.190Z,3.97
2022-11-24T14:30:04.500Z,3.73
2022-11-24T14:32:32.147Z,4.20
2022-11-24T14:34:59.922Z,4.87
2022-11-24T14:37:28.950Z,4.00
2022-11-24T14:39:59.023Z,3.77
2022-11-24T14:42:28.224Z,4.50
2022-11-24T14:44:58.583Z,4.37
2022-11-24T14:47:31.585Z,5.47
2022-11-24T14:50:10.919Z,5.17
2022-11-24T14:52:45.656Z,4.87
2022-11-24T14:55:27.537Z,5.03
2022-11-24T14:57:55.443Z,4.37
2022-11-24T15:00:28.762Z,4.80
2022-11-24T15:03:08.439Z,3.67
2022-11-24T15:05:54.343Z,3.40
2022-11-24T15:08:25.116Z,3.80
2022-11-24T15:10:58.242Z,3.47
2022-11-24T15:13:26.276Z,3.43
2022-11-24T15:16:02.106Z,3.27
2022-11-24T15:18:37.410Z,3.40
2022-11-24T15:21:05.392Z,3.43
2022-11-24T15:23:35.744Z,4.23
2022-11-24T15:26:31.246Z,3.80
2022-11-24T15:29:00.746Z,4.03
2022-11-24T15:31:28.390Z,4.40
2022-11-24T15:33:55.997Z,4.80
2022-11-24T15:36:23.608Z,4.00
2022-11-24T15:38:52.815Z,8.70
2022-11-24T15:41:22.096Z,6.10
2022-11-24T15:43:49.719Z,5.13
2022-11-24T15:46:17.444Z,4.67
2022-11-24T15:48:45.180Z,3.90
2022-11-24T15:51:15.249Z,4.47
2022-11-24T15:53:46.215Z,4.80
2022-11-24T15:56:20.061Z,4.83
2022-11-24T15:58:48.411Z,5.60
2022-11-24T16:01:16.110Z,4.03
2022-11-24T16:03:48.694Z,4.30
2022-11-24T16:06:24.217Z,4.27
2022-11-24T16:08:53.029Z,4.10
2022-11-24T16:11:22.226Z,4.70
2022-11-24T16:13:52.955Z,4.20
2022-11-24T16:16:22.382Z,5.10
2022-11-24T16:18:50.573Z,4.90
2022-11-24T16:21:18.166Z,4.57
2022-11-24T16:23:46.417Z,5.70
2022-11-24T16:26:14.027Z,4.20
2022-11-24T16:28:50.224Z,5.93
2022-11-24T16:31:18.980Z,5.20
2022-11-24T16:33:47.074Z,4.70
2022-11-24T16:36:15.049Z,5.67
2022-11-24T16:38:42.667Z,6.20
2022-11-24T16:41:10.642Z,6.00
2022-11-24T16:43:38.462Z,5.40
2022-11-24T16:46:18.005Z,5.30
2022-11-24T16:48:45.856Z,6.00
2022-11-24T16:51:14.416Z,5.87
2022-11-24T16:53:42.338Z,5.87
2022-11-24T16:56:10.152Z,5.93
2022-11-24T16:58:39.104Z,5.50
2022-11-24T17:01:08.179Z,6.20
2022-11-24T17:03:38.044Z,5.83
2022-11-24T17:06:07.467Z,6.17
2022-11-24T17:08:39.311Z,6.30
2022-11-24T17:11:07.815Z,6.27
2022-11-24T17:13:35.318Z,6.77
2022-11-24T17:16:05.257Z,7.27
2022-11-24T17:18:32.852Z,6.90
2022-11-24T17:21:07.788Z,6.93
2022-11-24T17:23:37.964Z,7.30
2022-11-24T17:26:07.780Z,6.00
2022-11-24T17:28:35.626Z,7.57
2022-11-24T17:31:07.697Z,7.30
2022-11-24T17:33:35.274Z,6.63
2022-11-24T17:36:05.455Z,6.40
2022-11-24T17:38:33.121Z,6.20
2022-11-24T17:41:00.694Z,7.23
2022-11-24T17:43:28.420Z,6.00
2022-11-24T17:45:57.734Z,7.30
2022-11-24T17:48:25.779Z,6.63
2022-11-24T17:51:00.369Z,7.40
2022-11-24T17:53:29.406Z,7.33
2022-11-24T17:55:59.859Z,6.83
2022-11-24T17:58:28.013Z,6.87
2022-11-24T18:00:55.707Z,6.57
2022-11-24T18:03:23.582Z,7.70
2022-11-24T18:05:51.168Z,7.40
2022-11-24T18:08:18.764Z,7.67
2022-11-24T18:10:47.770Z,7.63
2022-11-24T18:13:34.147Z,7.93
2022-11-24T18:16:04.216Z,7.33
2022-11-24T18:18:36.521Z,7.07
2022-11-24T18:21:07.170Z,6.57
2022-11-24T18:23:35.948Z,7.30
2022-11-24T18:26:06.673Z,7.37
2022-11-24T18:28:36.064Z,7.20
2022-11-24T18:31:05.309Z,6.50
2022-11-24T18:33:33.263Z,5.73
2022-11-24T18:36:04.520Z,7.57
2022-11-24T18:38:32.176Z,6.33
2022-11-24T18:41:00.837Z,6.60
2022-11-24T18:43:30.551Z,8.00
2022-11-24T18:45:58.326Z,7.40
2022-11-24T18:48:27.403Z,6.20
2022-11-24T18:50:57.459Z,7.40
2022-11-24T18:53:26.875Z,6.83
2022-11-24T18:55:56.052Z,6.10
2022-11-24T18:58:24.748Z,6.77
2022-11-24T19:00:54.286Z,5.93
2022-11-24T19:03:22.308Z,6.80
2022-11-24T19:05:50.058Z,6.20
2022-11-24T19:08:17.730Z,7.83
2022-11-24T19:10:45.325Z,5.87
2022-11-24T19:13:14.279Z,6.80
2022-11-24T19:15:44.849Z,6.63
2022-11-24T19:18:13.818Z,7.03
2022-11-24T19:20:41.331Z,5.97
2022-11-24T19:23:09.017Z,7.30
2022-11-24T19:25:39.627Z,6.20
2022-11-24T19:28:12.483Z,7.10
2022-11-24T19:30:47.187Z,7.00
2022-11-24T19:33:18.757Z,6.23
2022-11-24T19:35:59.629Z,6.90
2022-11-24T19:38:30.170Z,7.50
2022-11-24T19:41:02.672Z,8.50
2022-11-24T19:43:33.409Z,7.50
2022-11-24T19:46:02.910Z,7.40
2022-11-24T19:48:37.915Z,6.50
2022-11-24T19:51:13.974Z,7.30
2022-11-24T19:53:41.822Z,7.80
2022-11-24T19:56:10.859Z,7.60
2022-11-24T19:58:39.123Z,7.30
2022-11-24T20:01:08.184Z,7.17
2022-11-24T20:03:37.298Z,7.77
2022-11-24T20:06:05.799Z,7.50
2022-11-24T20:08:34.956Z,7.50
2022-11-24T20:11:04.595Z,7.77
2022-11-24T20:13:32.633Z,7.80
2022-11-24T20:16:04.485Z,7.90
2022-11-24T20:18:36.349Z,8.00
2022-11-24T20:21:11.053Z,7.30
2022-11-24T20:23:39.414Z,10.63
2022-11-24T20:26:08.847Z,11.33
2022-11-24T20:28:36.824Z,9.10
2022-11-24T20:31:05.287Z,9.87
2022-11-24T20:33:33.174Z,8.50
2022-11-24T20:36:05.682Z,7.50
2022-11-24T20:38:35.408Z,8.00
2022-11-24T20:41:08.952Z,7.47
2022-11-24T20:43:37.486Z,8.80
2022-11-24T20:46:07.219Z,8.23
2022-11-24T20:48:35.366Z,7.47
2022-11-24T20:51:07.761Z,7.20
2022-11-24T20:53:37.073Z,9.10
2022-11-24T20:56:06.383Z,8.17
2022-11-24T20:58:35.354Z,7.53
2022-11-24T21:01:07.776Z,10.20
2022-11-24T21:03:42.631Z,8.63
2022-11-24T21:06:12.080Z,8.40
2022-11-24T21:08:42.770Z,8.20
2022-11-24T21:11:12.229Z,7.73
2022-11-24T21:13:41.970Z,8.23
2022-11-24T21:16:14.040Z,7.40
2022-11-24T21:18:42.450Z,7.40
2022-11-24T21:21:10.285Z,7.87
2022-11-24T21:23:40.841Z,7.67
2022-11-24T21:26:16.298Z,7.70
2022-11-24T21:28:46.082Z,8.40
2022-11-24T21:31:15.968Z,7.50
2022-11-24T21:33:45.577Z,7.50
2022-11-24T21:36:15.314Z,7.70
2022-11-24T21:38:43.558Z,7.67
2022-11-24T21:41:14.074Z,7.67
2022-11-24T21:43:41.617Z,7.63
2022-11-24T21:46:11.560Z,7.23
2022-11-24T21:48:41.832Z,7.93
2022-11-24T21:51:15.984Z,7.93
2022-11-24T21:53:44.458Z,7.57
2022-11-24T21:56:15.103Z,7.40
2022-11-24T21:58:47.054Z,8.20
2022-11-24T22:01:16.177Z,7.60
2022-11-24T22:03:44.349Z,6.90
2022-11-24T22:06:12.352Z,7.40
2022-11-24T22:08:40.309Z,6.10
2022-11-24T22:11:09.461Z,6.93
2022-11-24T22:13:38.583Z,6.93
2022-11-24T22:16:08.933Z,6.37
2022-11-24T22:18:38.205Z,6.90
2022-11-24T22:21:07.595Z,7.20
2022-11-24T22:23:36.734Z,7.40
2022-11-24T22:26:05.614Z,6.43
2022-11-24T22:28:35.110Z,7.30
2022-11-24T22:31:09.140Z,6.63
2022-11-24T22:33:40.494Z,8.17
2022-11-24T22:36:08.937Z,6.87
2022-11-24T22:38:53.770Z,7.77
2022-11-24T22:41:22.027Z,7.33
2022-11-24T22:43:50.169Z,6.53
2022-11-24T22:46:21.064Z,8.10
2022-11-24T22:48:49.889Z,6.60
2022-11-24T22:51:19.167Z,7.47
2022-11-24T22:53:48.380Z,6.90
2022-11-24T22:56:17.131Z,6.00
2022-11-24T22:58:44.991Z,7.20
2022-11-24T23:01:13.908Z,6.40
2022-11-24T23:03:43.748Z,6.20
2022-11-24T23:06:14.323Z,6.10
2022-11-24T23:08:42.461Z,5.77
2022-11-24T23:11:13.290Z,6.53
2022-11-24T23:13:41.408Z,6.47
2022-11-24T23:16:12.017Z,6.53
2022-11-24T23:18:40.401Z,6.90
2022-11-24T23:21:11.517Z,6.07
2022-11-24T23:23:40.288Z,5.80
2022-11-24T23:26:10.158Z,6.30
2022-11-24T23:28:38.646Z,6.37
2022-11-24T23:31:08.107Z,5.83
2022-11-24T23:33:36.123Z,5.20
2022-11-24T23:36:05.368Z,5.60
2022-11-24T23:38:34.388Z,5.27
2022-11-24T23:41:04.340Z,5.53
2022-11-24T23:43:32.475Z,5.60
2022-11-24T23:46:03.708Z,4.90
2022-11-24T23:48:31.752Z,5.10
2022-11-24T23:51:07.507Z,6.07
2022-11-24T23:53:37.004Z,6.20
2022-11-24T23:56:05.796Z,5.60
2022-11-24T23:58:33.771Z,5.50
